createdAt,value
2023-01-30T00:01:45.750Z,-0.48
2023-01-30T00:04:48.462Z,-0.51
2023-01-30T00:07:50.875Z,-0.51
2023-01-30T00:10:53.565Z,-0.50
2023-01-30T00:13:56.064Z,-0.47
2023-01-30T00:16:58.681Z,-0.50
2023-01-30T00:20:01.161Z,-0.49
2023-01-30T00:23:04.192Z,-0.54
2023-01-30T00:26:07.022Z,-0.53
2023-01-30T00:29:09.946Z,-0.52
2023-01-30T00:32:12.427Z,-0.50
2023-01-30T00:35:16.027Z,-0.50
2023-01-30T00:38:19.163Z,-0.50
2023-01-30T00:41:22.805Z,-0.53
2023-01-30T00:44:43.880Z,-0.52
2023-01-30T00:47:48.992Z,-0.46
2023-01-30T00:50:51.489Z,-0.51
2023-01-30T00:53:54.311Z,-0.52
2023-01-30T00:56:56.782Z,-0.54
2023-01-30T01:00:01.042Z,-0.54
2023-01-30T01:03:03.927Z,-0.56
2023-01-30T01:06:06.904Z,-0.56
2023-01-30T01:09:09.546Z,-0.58
2023-01-30T01:12:12.292Z,-0.59
2023-01-30T01:15:15.113Z,-0.57
2023-01-30T01:18:17.943Z,-0.57
2023-01-30T01:21:22.624Z,-0.59
2023-01-30T01:24:25.376Z,-0.57
2023-01-30T01:27:29.091Z,-0.59
2023-01-30T01:30:31.832Z,-0.58
2023-01-30T01:33:34.231Z,-0.59
2023-01-30T01:36:52.872Z,-0.65
2023-01-30T01:40:14.562Z,-0.65
2023-01-30T01:43:20.825Z,-0.66
2023-01-30T01:46:28.024Z,-0.71
2023-01-30T01:49:37.229Z,-0.72
2023-01-30T01:52:39.710Z,-0.64
2023-01-30T01:55:47.317Z,-0.64
2023-01-30T01:58:58.347Z,-0.67
2023-01-30T02:02:06.859Z,-0.65
2023-01-30T02:05:12.844Z,-0.67
2023-01-30T02:08:20.459Z,-0.68
2023-01-30T02:11:46.728Z,-0.66
2023-01-30T02:14:50.650Z,-0.69
2023-01-30T02:17:53.460Z,-0.69
2023-01-30T02:21:20.961Z,-0.70
2023-01-30T02:24:43.405Z,-0.72
2023-01-30T02:28:12.956Z,-0.75
2023-01-30T02:31:24.913Z,-0.73
2023-01-30T02:34:46.359Z,-0.70
2023-01-30T02:38:14.239Z,-0.73
2023-01-30T02:41:36.791Z,-0.75
2023-01-30T02:45:24.253Z,-0.72
2023-01-30T02:48:47.481Z,-0.79
2023-01-30T02:51:54.387Z,-0.74
2023-01-30T02:54:56.783Z,-0.78
2023-01-30T02:58:00.429Z,-0.84
2023-01-30T03:01:39.962Z,-0.88
2023-01-30T03:05:01.245Z,-0.90
2023-01-30T03:08:28.547Z,-0.90
2023-01-30T03:12:24.708Z,-0.93
2023-01-30T03:15:33.979Z,-0.94
2023-01-30T03:18:36.716Z,-1.00
2023-01-30T03:21:44.641Z,-0.99
2023-01-30T03:24:48.387Z,-1.05
2023-01-30T03:27:55.532Z,-1.04
2023-01-30T03:30:58.509Z,-1.04
2023-01-30T03:34:00.983Z,-1.04
2023-01-30T03:37:05.483Z,-1.09
2023-01-30T03:40:10.412Z,-1.12
2023-01-30T03:43:13.374Z,-1.24
2023-01-30T03:46:15.841Z,-1.24
2023-01-30T03:49:21.648Z,-1.25
2023-01-30T03:52:24.274Z,-1.32
2023-01-30T03:55:27.117Z,-1.33
2023-01-30T03:58:29.529Z,-1.32
2023-01-30T04:01:33.012Z,-1.38
2023-01-30T04:04:35.915Z,-1.43
2023-01-30T04:07:39.249Z,-1.45
2023-01-30T04:10:44.484Z,-1.51
2023-01-30T04:13:46.922Z,-1.50
2023-01-30T04:16:50.215Z,-1.55
2023-01-30T04:19:57.948Z,-1.62
2023-01-30T04:23:01.017Z,-1.66
2023-01-30T04:26:03.803Z,-1.66
2023-01-30T04:29:07.745Z,-1.68
2023-01-30T04:32:11.729Z,-1.64
2023-01-30T04:35:14.945Z,-1.74
2023-01-30T04:38:17.425Z,-1.76
2023-01-30T04:41:20.629Z,-1.79
2023-01-30T04:44:23.617Z,-1.85
2023-01-30T04:47:26.427Z,-1.86
2023-01-30T04:50:29.477Z,-1.93
2023-01-30T04:53:32.443Z,-1.94
2023-01-30T04:56:36.019Z,-1.96
2023-01-30T04:59:38.758Z,-2.03
2023-01-30T05:02:41.605Z,-2.06
2023-01-30T05:05:47.520Z,-2.10
2023-01-30T05:08:51.445Z,-2.15
2023-01-30T05:11:54.160Z,-2.21
2023-01-30T05:14:58.894Z,-2.29
2023-01-30T05:18:01.534Z,-2.32
2023-01-30T05:21:09.108Z,-2.37
2023-01-30T05:24:11.830Z,-2.43
2023-01-30T05:27:14.264Z,-2.42
2023-01-30T05:30:17.191Z,-2.35
2023-01-30T05:33:19.656Z,-2.27
2023-01-30T05:36:23.906Z,-2.24
2023-01-30T05:39:26.336Z,-2.32
2023-01-30T05:42:31.553Z,-2.28
2023-01-30T05:45:33.936Z,-2.27
2023-01-30T05:48:36.597Z,-2.24
2023-01-30T05:51:38.968Z,-2.24
2023-01-30T05:54:41.729Z,-2.32
2023-01-30T05:57:44.149Z,-2.38
2023-01-30T06:00:46.842Z,-2.47
2023-01-30T06:03:49.751Z,-2.47
2023-01-30T06:06:52.300Z,-2.49
2023-01-30T06:09:57.696Z,-2.45
2023-01-30T06:13:00.290Z,-2.45
2023-01-30T06:16:03.526Z,-2.44
2023-01-30T06:19:06.089Z,-2.43
2023-01-30T06:22:08.914Z,-2.40
2023-01-30T06:25:11.522Z,-2.36
2023-01-30T06:28:16.660Z,-2.32
2023-01-30T06:31:19.408Z,-2.34
2023-01-30T06:34:22.388Z,-2.43
2023-01-30T06:37:24.940Z,-2.41
2023-01-30T06:40:27.768Z,-2.40
2023-01-30T06:43:30.276Z,-2.40
2023-01-30T06:46:33.129Z,-2.39
2023-01-30T06:49:35.552Z,-2.60
2023-01-30T06:52:42.458Z,-2.61
2023-01-30T06:55:44.940Z,-2.63
2023-01-30T06:58:47.698Z,-2.58
2023-01-30T07:01:50.185Z,-2.66
2023-01-30T07:04:52.943Z,-2.60
2023-01-30T07:07:55.454Z,-2.56
2023-01-30T07:10:58.128Z,-2.40
2023-01-30T07:14:00.509Z,-2.54
2023-01-30T07:17:03.255Z,-2.40
2023-01-30T07:20:06.088Z,-2.49
2023-01-30T07:23:08.962Z,-2.33
2023-01-30T07:26:11.377Z,-2.49
2023-01-30T07:29:14.096Z,-2.33
2023-01-30T07:32:19.326Z,-2.31
2023-01-30T07:35:23.171Z,-2.33
2023-01-30T07:38:25.947Z,-2.32
2023-01-30T07:41:28.804Z,-2.29
2023-01-30T07:44:32.066Z,-2.24
2023-01-30T07:47:35.364Z,-2.16
2023-01-30T07:50:38.346Z,-2.04
2023-01-30T07:53:41.214Z,-2.22
2023-01-30T07:56:44.044Z,-2.13
2023-01-30T07:59:47.049Z,-2.14
2023-01-30T08:02:49.693Z,-1.89
2023-01-30T08:05:54.131Z,-1.96
2023-01-30T08:08:56.827Z,-1.97
2023-01-30T08:11:59.922Z,-1.55
2023-01-30T08:15:02.603Z,-1.06
2023-01-30T08:18:07.419Z,-0.80
2023-01-30T08:21:10.794Z,-1.41
2023-01-30T08:24:13.811Z,-1.67
2023-01-30T08:27:16.262Z,-1.48
2023-01-30T08:30:38.299Z,-0.98
2023-01-30T08:33:40.681Z,-0.69
2023-01-30T08:36:46.699Z,0.31
2023-01-30T08:39:49.101Z,0.62
2023-01-30T08:42:51.978Z,0.03
2023-01-30T08:45:55.097Z,-1.09
2023-01-30T08:48:57.764Z,-1.33
2023-01-30T08:52:00.149Z,-1.31
2023-01-30T08:55:04.350Z,-1.52
2023-01-30T08:58:06.989Z,-1.48
2023-01-30T09:01:10.169Z,-1.34
2023-01-30T09:04:12.686Z,-1.43
2023-01-30T09:07:15.426Z,-1.03
2023-01-30T09:10:18.624Z,-0.93
2023-01-30T09:13:22.463Z,-0.59
2023-01-30T09:16:26.201Z,-0.86
2023-01-30T09:19:29.360Z,-0.86
2023-01-30T09:22:32.691Z,-0.91
2023-01-30T09:25:35.608Z,-0.95
2023-01-30T09:28:38.230Z,-1.10
2023-01-30T09:31:41.723Z,-0.43
2023-01-30T09:34:44.319Z,-0.48
2023-01-30T09:37:49.044Z,-0.11
2023-01-30T09:41:06.986Z,-0.38
2023-01-30T09:44:47.989Z,-0.74
2023-01-30T09:48:04.320Z,-0.91
2023-01-30T09:51:19.707Z,-0.71
2023-01-30T09:54:30.707Z,-0.55
2023-01-30T09:57:33.618Z,-0.60
2023-01-30T10:00:44.628Z,-0.18
2023-01-30T10:04:01.713Z,-0.01
2023-01-30T10:07:13.179Z,-0.01
2023-01-30T10:10:16.094Z,-0.02
2023-01-30T10:13:29.953Z,-0.24
2023-01-30T10:17:07.866Z,-0.07
2023-01-30T10:20:22.597Z,0.69
2023-01-30T10:24:03.069Z,0.16
2023-01-30T10:27:13.876Z,0.90
2023-01-30T10:30:17.766Z,1.32
2023-01-30T10:33:30.716Z,0.91
2023-01-30T10:36:43.689Z,0.88
2023-01-30T10:40:13.466Z,0.64
2023-01-30T10:43:23.967Z,0.12
2023-01-30T10:46:29.463Z,-0.11
2023-01-30T10:49:41.577Z,-0.21
2023-01-30T10:52:53.041Z,-0.17
2023-01-30T10:56:08.735Z,-0.20
2023-01-30T10:59:34.903Z,-0.08
2023-01-30T11:03:08.523Z,0.02
2023-01-30T11:06:19.353Z,0.31
2023-01-30T11:09:24.389Z,0.19
2023-01-30T11:12:27.171Z,0.13
2023-01-30T11:15:45.599Z,-0.01
2023-01-30T11:22:15.467Z,1.02
2023-01-30T11:25:21.985Z,0.65
2023-01-30T11:28:26.488Z,0.87
2023-01-30T11:31:41.024Z,1.40
2023-01-30T11:34:44.871Z,1.15
2023-01-30T11:37:47.581Z,0.80
2023-01-30T11:40:50.755Z,0.57
2023-01-30T11:44:03.587Z,0.58
2023-01-30T11:47:26.193Z,0.44
2023-01-30T11:50:36.420Z,0.59
2023-01-30T11:53:47.583Z,0.49
2023-01-30T11:56:54.771Z,0.93
2023-01-30T12:00:00.821Z,1.10
2023-01-30T12:03:10.070Z,0.98
2023-01-30T12:06:22.645Z,0.76
2023-01-30T12:09:38.662Z,0.75
2023-01-30T12:12:51.992Z,0.61
2023-01-30T12:16:42.448Z,0.73
2023-01-30T12:20:03.904Z,0.72
2023-01-30T12:23:40.589Z,0.66
2023-01-30T12:27:04.823Z,0.77
2023-01-30T12:30:27.296Z,0.91
2023-01-30T12:33:32.950Z,0.91
2023-01-30T12:36:52.557Z,0.76
2023-01-30T12:40:16.210Z,0.84
2023-01-30T12:43:44.476Z,1.00
2023-01-30T12:47:05.385Z,1.03
2023-01-30T12:50:36.591Z,1.11
2023-01-30T12:53:45.332Z,1.01
2023-01-30T12:57:00.510Z,0.92
2023-01-30T13:00:21.885Z,0.92
2023-01-30T13:03:50.394Z,1.01
2023-01-30T13:07:16.717Z,1.05
2023-01-30T13:10:25.485Z,0.99
2023-01-30T13:13:39.489Z,1.02
2023-01-30T13:17:00.874Z,1.03
2023-01-30T13:20:09.605Z,1.06
2023-01-30T13:23:32.144Z,1.12
2023-01-30T13:26:37.753Z,1.18
2023-01-30T13:29:42.068Z,1.34
2023-01-30T13:32:50.037Z,1.20
2023-01-30T13:36:08.191Z,1.29
2023-01-30T13:39:19.716Z,1.18
2023-01-30T13:42:29.895Z,1.16
2023-01-30T13:45:36.673Z,1.18
2023-01-30T13:48:48.254Z,1.08
2023-01-30T13:52:24.538Z,1.13
2023-01-30T13:55:39.024Z,1.18
2023-01-30T13:58:59.176Z,1.25
2023-01-30T14:02:06.637Z,1.16
2023-01-30T14:05:10.046Z,1.12
2023-01-30T14:08:19.942Z,1.14
2023-01-30T14:11:34.429Z,1.16
2023-01-30T14:14:38.331Z,1.11
2023-01-30T14:18:00.891Z,1.14
2023-01-30T14:21:26.473Z,1.11
2023-01-30T14:24:31.489Z,1.08
2023-01-30T14:27:33.921Z,1.12
2023-01-30T14:30:53.417Z,1.14
2023-01-30T14:33:55.830Z,1.11
2023-01-30T14:36:58.527Z,1.11
2023-01-30T14:40:02.628Z,1.11
2023-01-30T14:43:19.529Z,1.11
2023-01-30T14:46:21.912Z,1.10
2023-01-30T14:49:28.336Z,1.07
2023-01-30T14:52:39.629Z,1.05
2023-01-30T14:55:42.955Z,1.05
2023-01-30T14:59:01.136Z,1.04
2023-01-30T15:02:13.108Z,1.05
2023-01-30T15:05:20.012Z,1.05
2023-01-30T15:08:26.970Z,1.05
2023-01-30T15:11:33.120Z,1.06
2023-01-30T15:14:45.585Z,1.03
2023-01-30T15:18:01.981Z,1.00
2023-01-30T15:22:14.740Z,0.89
2023-01-30T15:25:41.545Z,0.85
2023-01-30T15:29:15.514Z,0.83
2023-01-30T15:32:25.129Z,0.77
2023-01-30T15:35:28.635Z,0.77
2023-01-30T15:38:33.757Z,0.74
2023-01-30T15:41:41.248Z,0.72
2023-01-30T15:45:07.545Z,0.68
2023-01-30T15:48:13.300Z,0.68
2023-01-30T15:51:19.789Z,0.70
2023-01-30T15:54:24.188Z,0.67
2023-01-30T15:57:39.087Z,0.67
2023-01-30T16:00:46.689Z,0.71
2023-01-30T16:03:51.091Z,0.65
2023-01-30T16:06:53.568Z,0.68
2023-01-30T16:10:07.197Z,0.67
2023-01-30T16:13:10.257Z,0.65
2023-01-30T16:16:19.479Z,0.64
2023-01-30T16:19:29.674Z,0.61
2023-01-30T16:22:35.084Z,0.52
2023-01-30T16:25:37.646Z,0.46
2023-01-30T16:28:40.940Z,0.42
2023-01-30T16:31:47.540Z,0.33
2023-01-30T16:34:50.426Z,0.32
2023-01-30T16:37:54.240Z,0.27
2023-01-30T16:40:58.305Z,0.21
2023-01-30T16:44:20.703Z,0.18
2023-01-30T16:47:25.178Z,0.15
2023-01-30T16:50:27.843Z,0.10
2023-01-30T16:53:32.482Z,0.07
2023-01-30T16:56:35.866Z,-0.07
2023-01-30T16:59:39.356Z,-0.13
2023-01-30T17:02:42.615Z,-0.14
2023-01-30T17:05:48.567Z,-0.19
2023-01-30T17:08:57.816Z,-0.21
2023-01-30T17:12:01.017Z,-0.24
2023-01-30T17:15:28.573Z,-0.25
2023-01-30T17:18:31.231Z,-0.29
2023-01-30T17:21:51.156Z,-0.30
2023-01-30T17:25:00.967Z,-0.32
2023-01-30T17:28:04.845Z,-0.31
2023-01-30T17:31:15.385Z,-0.33
2023-01-30T17:34:18.276Z,-0.33
2023-01-30T17:37:22.458Z,-0.32
2023-01-30T17:40:33.239Z,-0.33
2023-01-30T17:43:35.985Z,-0.29
2023-01-30T17:46:42.424Z,-0.27
2023-01-30T17:49:45.248Z,-0.27
2023-01-30T17:52:47.755Z,-0.24
2023-01-30T17:55:50.476Z,-0.21
2023-01-30T17:58:53.158Z,-0.24
2023-01-30T18:01:55.911Z,-0.21
2023-01-30T18:04:58.724Z,-0.24
2023-01-30T18:08:01.732Z,-0.23
2023-01-30T18:11:04.452Z,-0.18
2023-01-30T18:14:07.300Z,-0.19
2023-01-30T18:17:10.875Z,-0.17
2023-01-30T18:20:14.854Z,-0.19
2023-01-30T18:23:18.140Z,-0.18
2023-01-30T18:26:20.677Z,-0.18
2023-01-30T18:29:23.473Z,-0.18
2023-01-30T18:32:25.997Z,-0.17
2023-01-30T18:35:28.795Z,-0.18
2023-01-30T18:38:31.509Z,-0.14
2023-01-30T18:41:35.537Z,-0.09
2023-01-30T18:44:38.060Z,-0.08
2023-01-30T18:47:40.816Z,-0.07
2023-01-30T18:50:43.276Z,-0.03
2023-01-30T18:53:50.473Z,-0.01
2023-01-30T18:56:53.144Z,0.06
2023-01-30T18:59:55.867Z,0.05
2023-01-30T19:02:58.466Z,0.11
2023-01-30T19:06:02.336Z,0.13
2023-01-30T19:09:06.055Z,0.20
2023-01-30T19:12:28.084Z,0.24
2023-01-30T19:15:30.752Z,0.23
2023-01-30T19:18:34.356Z,0.27
2023-01-30T19:21:37.197Z,0.30
2023-01-30T19:24:39.936Z,0.33
2023-01-30T19:27:44.184Z,0.34
2023-01-30T19:30:46.993Z,0.33
2023-01-30T19:33:58.445Z,0.34
2023-01-30T19:37:01.364Z,0.31
2023-01-30T19:40:08.715Z,0.38
2023-01-30T19:43:12.965Z,0.37
2023-01-30T19:46:15.550Z,0.38
2023-01-30T19:49:18.420Z,0.37
2023-01-30T19:52:20.911Z,0.36
2023-01-30T19:55:24.559Z,0.36
2023-01-30T19:58:27.063Z,0.35
2023-01-30T20:01:32.989Z,0.41
2023-01-30T20:04:35.792Z,0.40
2023-01-30T20:07:38.631Z,0.40
2023-01-30T20:10:41.830Z,0.39
2023-01-30T20:13:45.498Z,0.43
2023-01-30T20:16:48.256Z,0.45
2023-01-30T20:19:50.649Z,0.41
2023-01-30T20:22:53.289Z,0.44
2023-01-30T20:25:55.802Z,0.44
2023-01-30T20:28:58.641Z,0.42
2023-01-30T20:32:01.116Z,0.43
2023-01-30T20:35:03.983Z,0.41
2023-01-30T20:38:06.429Z,0.45
2023-01-30T20:41:11.026Z,0.48
2023-01-30T20:44:14.709Z,0.49
2023-01-30T20:47:17.470Z,0.52
2023-01-30T20:50:20.413Z,0.49
2023-01-30T20:53:23.376Z,0.49
2023-01-30T20:56:30.368Z,0.54
2023-01-30T20:59:34.190Z,0.57
2023-01-30T21:02:37.037Z,0.54
2023-01-30T21:05:39.869Z,0.52
2023-01-30T21:08:42.563Z,0.47
2023-01-30T21:11:45.789Z,0.48
2023-01-30T21:14:48.287Z,0.48
2023-01-30T21:17:51.056Z,0.49
2023-01-30T21:20:53.516Z,0.50
2023-01-30T21:23:59.554Z,0.48
2023-01-30T21:27:01.988Z,0.53
2023-01-30T21:30:05.109Z,0.53
2023-01-30T21:33:07.693Z,0.55
2023-01-30T21:36:11.913Z,0.55
2023-01-30T21:39:33.106Z,0.48
2023-01-30T21:42:54.272Z,0.48
2023-01-30T21:45:59.721Z,0.41
2023-01-30T21:49:02.641Z,0.38
2023-01-30T21:52:05.130Z,0.37
2023-01-30T21:55:08.413Z,0.37
2023-01-30T21:58:10.954Z,0.36
2023-01-30T22:01:14.049Z,0.32
2023-01-30T22:04:17.052Z,0.29
2023-01-30T22:07:19.582Z,0.24
2023-01-30T22:10:22.381Z,0.21
2023-01-30T22:13:24.793Z,0.14
2023-01-30T22:16:29.386Z,0.09
2023-01-30T22:19:35.811Z,0.05
2023-01-30T22:22:38.730Z,0.05
2023-01-30T22:25:41.097Z,-0.01
2023-01-30T22:28:44.245Z,-0.03
2023-01-30T22:31:46.713Z,-0.03
2023-01-30T22:34:49.534Z,-0.02
2023-01-30T22:37:51.911Z,-0.02
2023-01-30T22:41:08.801Z,-0.05
2023-01-30T22:44:11.203Z,-0.04
2023-01-30T22:47:13.985Z,-0.03
2023-01-30T22:50:16.688Z,-0.12
2023-01-30T22:53:19.384Z,-0.16
2023-01-30T22:56:27.768Z,-0.21
2023-01-30T22:59:30.458Z,-0.30
2023-01-30T23:02:32.877Z,-0.35
2023-01-30T23:05:35.744Z,-0.38
2023-01-30T23:08:40.432Z,-0.43
2023-01-30T23:12:07.243Z,-0.42
2023-01-30T23:15:10.205Z,-0.43
2023-01-30T23:18:32.886Z,-0.46
2023-01-30T23:21:44.227Z,-0.52
2023-01-30T23:24:48.827Z,-0.48
2023-01-30T23:27:51.310Z,-0.51
2023-01-30T23:30:54.081Z,-0.53
2023-01-30T23:33:59.492Z,-0.56
2023-01-30T23:37:02.279Z,-0.64
2023-01-30T23:40:05.370Z,-0.72
2023-01-30T23:43:08.140Z,-0.73
2023-01-30T23:46:11.826Z,-0.77
2023-01-30T23:49:15.257Z,-0.86
2023-01-30T23:52:17.607Z,-0.88
2023-01-30T23:55:23.049Z,-0.88
2023-01-30T23:58:25.504Z,-0.88
